This is the latest recevied weather packets stored in our database for station/object VU3ZAG-13. If no packets are shown the sender has not sent any weather packets the latest 1 day(s).
| Time | Temp. | Humidity | Pressure | Rain* | Wind** | Luminosity | Snow |
|---|---|---|---|---|---|---|---|
| 1778026699 | 31.11° C | 48% | - | 0 mm | 1.34 m/s, 280° | - | - |
| 1778026390 | 31.11° C | 48% | - | 0 mm | 1.34 m/s, 274° | - | - |
| 1778026081 | 31.11° C | 48% | - | 0 mm | 1.79 m/s, 274° | - | - |
| 1778025772 | 31.11° C | 48% | - | 0 mm | 1.34 m/s, 276° | - | - |
| 1778025463 | 31.11° C | 48% | - | 0 mm | 0.89 m/s, 263° | - | - |
| 1778025154 | 31.11° C | 48% | - | 0 mm | 1.79 m/s, 279° | - | - |
| 1778024846 | 31.11° C | 48% | - | 0 mm | 0.89 m/s, 308° | - | - |
| 1778024537 | 31.11° C | 48% | - | 0 mm | 1.34 m/s, 280° | - | - |
| 1778024229 | 31.11° C | 48% | - | 0 mm | 1.34 m/s, 288° | - | - |
| 1778023920 | 31.11° C | 48% | - | 0 mm | 1.34 m/s, 272° | - | - |
| 1778023611 | 31.11° C | 48% | - | 0 mm | 1.34 m/s, 278° | - | - |
| 1778023302 | 31.11° C | 48% | - | 0 mm | 0.89 m/s, 287° | - | - |
| 1778022994 | 31.11° C | 48% | - | 0 mm | 0.89 m/s, 323° | - | - |
| 1778022685 | 31.11° C | 48% | - | 0 mm | 1.34 m/s, 277° | - | - |
| 1778022376 | 31.11° C | 48% | - | 0 mm | 1.34 m/s, 304° | - | - |
| 1778022067 | 31.11° C | 48% | - | 0 mm | 1.79 m/s, 283° | - | - |
| 1778021758 | 31.11° C | 48% | - | 0 mm | 1.79 m/s, 264° | - | - |
| 1778021450 | 31.11° C | 48% | - | 0 mm | 1.34 m/s, 267° | - | - |
| 1778021141 | 31.11° C | 48% | - | 0 mm | 1.34 m/s, 289° | - | - |
| 1778020832 | 31.11° C | 48% | - | 0 mm | 1.34 m/s, 277° | - | - |
| 1778020523 | 31.11° C | 48% | - | 0 mm | 0.89 m/s, 320° | - | - |
| 1778020216 | 31.11° C | 48% | - | 0 mm | 1.79 m/s, 264° | - | - |
| 1778019906 | 31.11° C | 48% | - | 0 mm | 1.34 m/s, 267° | - | - |
| 1778019597 | 31.11° C | 48% | - | 0 mm | 1.34 m/s, 269° | - | - |
| 1778019288 | 31.11° C | 48% | - | 0 mm | 0.89 m/s, 297° | - | - |
* Rain since midnight (hover to see other rain measurements)
** Current wind speed in m/s (hover to see current wind gust speed)